Time;durP1;ratioP1;P1;durP2;ratioP2;P2;SDS_P1;SDS_P2;PMS_P1;PMS_P2;Temp;Humidity;BMP_temperature;BMP_pressure;BME280_temperature;BME280_humidity;BME280_pressure;Samples;Min_cycle;Max_cycle;Signal;HPM_P1;HPM_P2
2021/05/13 00:01:22;;;;;;;4.07;2.10;;;;;;;16.69;38.54;99047.41;3519166;40;20046;-59
2021/05/13 00:03:50;;;;;;;2.70;2.25;;;;;;;16.64;38.72;99049.53;3519262;40;20039;-54
2021/05/13 00:06:17;;;;;;;5.90;2.47;;;;;;;16.60;38.91;99055.22;3518813;40;20393;-53
2021/05/13 00:08:43;;;;;;;4.72;2.15;;;;;;;16.56;38.86;99052.00;3518922;40;20048;-55
2021/05/13 00:11:12;;;;;;;3.92;2.17;;;;;;;16.55;38.89;99049.47;3509974;40;20072;-54
2021/05/13 00:13:40;;;;;;;3.53;2.15;;;;;;;16.53;39.09;99049.59;3519078;40;20035;-52
2021/05/13 00:16:08;;;;;;;2.53;1.95;;;;;;;16.51;39.12;99050.69;3518768;40;20032;-53
2021/05/13 00:18:35;;;;;;;2.60;2.10;;;;;;;16.48;39.37;99048.31;3519101;40;20043;-56
2021/05/13 00:21:02;;;;;;;2.33;1.85;;;;;;;16.46;39.27;99051.06;3518595;40;20040;-54
2021/05/13 00:23:28;;;;;;;6.05;2.40;;;;;;;16.43;39.21;99043.38;3518882;40;20039;-52
2021/05/13 00:25:55;;;;;;;6.47;2.70;;;;;;;16.39;39.36;99044.59;3518984;40;20036;-51
2021/05/13 00:28:23;;;;;;;5.07;2.38;;;;;;;16.31;39.55;99049.66;3518975;40;20047;-54
2021/05/13 00:30:52;;;;;;;4.97;2.70;;;;;;;16.24;39.90;99051.09;3518542;40;20032;-51
2021/05/13 00:33:19;;;;;;;2.90;2.20;;;;;;;16.16;39.93;99055.22;3518923;40;20042;-52
2021/05/13 00:35:56;;;;;;;2.97;1.95;;;;;;;16.13;39.87;99047.53;3518277;40;20037;-52
2021/05/13 00:38:23;;;;;;;5.13;2.35;;;;;;;16.12;40.02;99043.22;3518672;40;20312;-54
2021/05/13 00:40:53;;;;;;;3.97;2.30;;;;;;;16.05;40.01;99042.03;3511197;40;20043;-55
2021/05/13 00:43:20;;;;;;;5.38;2.30;;;;;;;16.00;40.41;99038.91;3519184;40;20032;-52
2021/05/13 00:45:48;;;;;;;5.75;2.50;;;;;;;15.97;40.33;99033.84;3519999;40;20035;-54
2021/05/13 00:48:16;;;;;;;4.22;2.22;;;;;;;15.94;40.43;99042.03;3519667;40;20040;-54
2021/05/13 00:50:44;;;;;;;4.45;2.47;;;;;;;15.90;40.66;99037.97;3520375;40;20040;-53
2021/05/13 00:53:11;;;;;;;5.22;2.40;;;;;;;15.85;40.58;99029.56;3520375;40;20064;-54
2021/05/13 00:55:39;;;;;;;5.53;2.30;;;;;;;15.80;40.78;99029.06;3519775;40;20454;-56
2021/05/13 00:58:07;;;;;;;2.92;2.20;;;;;;;15.74;41.09;99027.75;3519061;40;20032;-54
2021/05/13 01:00:41;;;;;;;5.55;2.83;;;;;;;15.70;41.12;99025.47;3519886;40;20040;-53
2021/05/13 01:03:09;;;;;;;7.22;2.35;;;;;;;15.68;40.98;99027.41;3520253;40;20036;-52
2021/05/13 01:05:37;;;;;;;3.17;2.45;;;;;;;15.62;41.24;99022.63;3520421;40;20040;-53
2021/05/13 01:08:06;;;;;;;4.85;2.25;;;;;;;15.60;41.37;99013.94;3519863;40;20047;-54
2021/05/13 01:10:34;;;;;;;4.50;2.75;;;;;;;15.58;41.45;99019.31;3519215;40;20035;-54
2021/05/13 01:13:05;;;;;;;4.82;2.63;;;;;;;15.55;41.58;99016.91;3520343;40;20046;-53
2021/05/13 01:15:37;;;;;;;2.63;2.33;;;;;;;15.53;41.50;99019.69;3520074;40;20032;-51
2021/05/13 01:18:09;;;;;;;4.07;2.30;;;;;;;15.48;41.62;99024.50;3519774;40;20405;-52
2021/05/13 01:20:36;;;;;;;3.33;2.40;;;;;;;15.42;42.12;99019.69;3520256;40;20042;-58
2021/05/13 01:23:07;;;;;;;2.95;2.10;;;;;;;15.35;42.10;99013.19;3520134;40;20064;-54
2021/05/13 01:25:43;;;;;;;5.47;3.13;;;;;;;15.29;42.13;99010.19;3520237;40;20036;-58
2021/05/13 01:28:10;;;;;;;8.32;2.97;;;;;;;15.27;42.27;99010.31;3519910;40;20032;-58
2021/05/13 01:30:37;;;;;;;3.92;2.25;;;;;;;15.20;42.42;99012.59;3519714;40;20043;-52
2021/05/13 01:33:04;;;;;;;6.53;2.72;;;;;;;15.17;42.64;99010.16;3519706;40;20048;-53
2021/05/13 01:35:31;;;;;;;6.55;2.72;;;;;;;15.14;42.68;99004.28;3520044;40;20032;-52
2021/05/13 01:38:07;;;;;;;3.10;2.30;;;;;;;15.11;42.52;98991.31;3519848;40;20093;-58
2021/05/13 01:40:36;;;;;;;6.90;2.50;;;;;;;15.11;42.72;98994.81;3519872;40;20122;-57
2021/05/13 01:43:03;;;;;;;3.95;2.47;;;;;;;15.04;42.98;98990.13;3518855;40;20039;-52
2021/05/13 01:45:31;;;;;;;6.82;3.05;;;;;;;14.98;43.41;98987.94;3520071;40;20039;-53
2021/05/13 01:48:02;;;;;;;5.07;2.75;;;;;;;14.95;43.20;98987.22;3519085;40;20270;-52
2021/05/13 01:50:38;;;;;;;5.18;3.03;;;;;;;14.94;43.23;98985.53;3519683;40;20039;-54
2021/05/13 01:53:07;;;;;;;5.90;2.80;;;;;;;14.94;43.28;98990.81;3519345;40;20040;-58
2021/05/13 01:55:35;;;;;;;3.97;2.53;;;;;;;14.93;43.30;98994.41;3519645;40;20078;-54
2021/05/13 01:58:04;;;;;;;5.13;3.03;;;;;;;14.92;43.29;98995.38;3519588;40;20068;-55
2021/05/13 02:00:32;;;;;;;4.15;2.92;;;;;;;14.92;43.49;98991.88;3519902;40;20039;-50
2021/05/13 02:02:59;;;;;;;4.43;2.75;;;;;;;14.88;43.51;98993.09;3519562;40;20039;-51
2021/05/13 02:05:26;;;;;;;4.03;2.67;;;;;;;14.85;43.66;98988.88;3510747;40;20086;-52
2021/05/13 02:07:52;;;;;;;6.05;2.60;;;;;;;14.85;43.73;98990.69;3519636;40;20035;-51
2021/05/13 02:10:20;;;;;;;4.97;2.47;;;;;;;14.83;43.57;98985.53;3519449;40;20039;-52
2021/05/13 02:12:48;;;;;;;4.90;2.60;;;;;;;14.79;43.79;98983.25;3519450;40;20043;-54
2021/05/13 02:15:16;;;;;;;4.28;2.50;;;;;;;14.75;44.04;98974.69;3519513;40;20040;-52
2021/05/13 02:17:44;;;;;;;6.70;2.83;;;;;;;14.71;43.95;98975.88;3519646;40;20062;-54
2021/05/13 02:20:13;;;;;;;4.28;2.65;;;;;;;14.66;44.27;98977.19;3520535;40;20044;-55
2021/05/13 02:22:40;;;;;;;3.58;2.65;;;;;;;14.63;44.24;98973.84;3512274;40;20118;-59
2021/05/13 02:25:10;;;;;;;4.38;2.53;;;;;;;14.57;44.44;98969.00;3519483;40;20333;-51
2021/05/13 02:27:38;;;;;;;5.30;2.60;;;;;;;14.55;44.55;98967.44;3520191;40;20047;-51
2021/05/13 02:30:07;;;;;;;4.18;2.85;;;;;;;14.52;44.62;98962.41;3520395;40;20040;-51
2021/05/13 02:32:34;;;;;;;3.30;2.58;;;;;;;14.46;44.79;98962.88;3519127;40;20412;-56
2021/05/13 02:35:01;;;;;;;4.28;3.22;;;;;;;14.42;45.04;98961.38;3520368;40;20028;-55
2021/05/13 02:37:28;;;;;;;11.20;2.70;;;;;;;14.41;44.93;98957.06;3519918;40;20058;-51
2021/05/13 02:39:54;;;;;;;5.32;2.50;;;;;;;14.39;45.26;98951.06;3519955;40;20036;-52
2021/05/13 02:42:21;;;;;;;4.88;2.88;;;;;;;14.36;44.92;98949.47;3519937;40;20040;-53
2021/05/13 02:44:49;;;;;;;7.03;3.50;;;;;;;14.34;45.10;98949.59;3519991;40;20491;-52
2021/05/13 02:47:16;;;;;;;4.60;2.60;;;;;;;14.35;45.22;98951.28;3520288;40;20040;-53
2021/05/13 02:49:43;;;;;;;3.60;2.55;;;;;;;14.35;45.16;98947.78;3519980;40;20346;-52
2021/05/13 02:52:10;;;;;;;12.95;3.78;;;;;;;14.35;45.13;98946.00;3520211;40;20412;-54
2021/05/13 02:54:36;;;;;;;3.08;2.50;;;;;;;14.33;45.34;98941.78;3520027;40;20047;-53
2021/05/13 02:57:04;;;;;;;5.65;2.83;;;;;;;14.30;45.43;98937.59;3519900;40;20036;-53
2021/05/13 02:59:40;;;;;;;7.05;3.00;;;;;;;14.31;45.39;98935.81;3519812;40;20110;-52
2021/05/13 03:02:08;;;;;;;4.35;2.90;;;;;;;14.31;45.36;98941.06;3520193;40;20036;-53
2021/05/13 03:04:35;;;;;;;12.10;3.08;;;;;;;14.31;45.52;98941.91;3520192;40;20044;-52
2021/05/13 03:07:02;;;;;;;4.47;3.03;;;;;;;14.33;45.35;98934.72;3519766;40;20047;-52
2021/05/13 03:09:28;;;;;;;4.97;3.13;;;;;;;14.31;45.47;98936.63;3520021;40;20083;-52
2021/05/13 03:11:55;;;;;;;5.40;2.60;;;;;;;14.33;45.48;98932.09;3519694;40;20384;-56
2021/05/13 03:14:22;;;;;;;5.55;2.85;;;;;;;14.33;45.50;98932.09;3519923;40;20075;-53
2021/05/13 03:16:49;;;;;;;6.53;3.20;;;;;;;14.35;45.55;98934.63;3520161;40;20052;-57
2021/05/13 03:19:21;;;;;;;5.10;3.20;;;;;;;14.32;45.60;98930.41;3520152;40;20031;-57
2021/05/13 03:21:52;;;;;;;9.70;3.00;;;;;;;14.36;45.47;98936.28;3519830;40;20420;-51
2021/05/13 03:24:25;;;;;;;4.10;3.08;;;;;;;14.39;45.52;98936.09;3511114;40;20148;-50
2021/05/13 03:27:01;;;;;;;5.40;3.15;;;;;;;14.42;45.42;98935.00;3519790;40;20052;-51
2021/05/13 03:29:28;;;;;;;5.40;3.05;;;;;;;14.34;45.64;98925.88;3520118;40;20051;-56
2021/05/13 03:31:55;;;;;;;9.13;5.22;;;;;;;14.28;45.88;98923.69;3519715;40;20278;-53
2021/05/13 03:34:22;;;;;;;3.72;2.72;;;;;;;14.26;45.73;98925.59;3519880;40;20058;-54
2021/05/13 03:36:49;;;;;;;6.43;2.90;;;;;;;14.24;45.72;98927.50;3520053;40;20032;-52
2021/05/13 03:39:16;;;;;;;4.88;2.88;;;;;;;14.30;45.67;98932.31;3519639;40;20644;-54
2021/05/13 03:41:43;;;;;;;4.70;2.92;;;;;;;14.39;45.68;98933.44;3520087;40;20047;-52
2021/05/13 03:44:10;;;;;;;7.32;3.35;;;;;;;14.43;45.66;98928.78;3519527;40;20312;-54
2021/05/13 03:46:36;;;;;;;4.50;3.50;;;;;;;14.50;45.49;98927.38;3520050;40;20072;-53
2021/05/13 03:49:04;;;;;;;4.82;3.20;;;;;;;14.56;45.56;98924.28;3519915;40;20036;-51
2021/05/13 03:51:31;;;;;;;5.95;3.40;;;;;;;14.63;45.31;98925.50;3519917;40;20052;-52
2021/05/13 03:53:58;;;;;;;5.10;3.35;;;;;;;14.71;45.29;98919.66;3519809;40;20043;-52
2021/05/13 03:56:25;;;;;;;12.75;3.55;;;;;;;14.76;45.15;98922.78;3519257;40;20067;-53
2021/05/13 03:58:55;;;;;;;5.05;2.97;;;;;;;14.80;45.33;98925.06;3519762;40;20043;-52
2021/05/13 04:01:41;;;;;;;6.70;2.92;;;;;;;14.74;45.28;98914.97;3519627;40;20400;-55
2021/05/13 04:04:09;;;;;;;4.57;3.25;;;;;;;14.77;45.22;98919.16;3520268;40;20044;-55
2021/05/13 04:06:37;;;;;;;7.70;3.15;;;;;;;14.85;45.06;98915.00;3519486;40;20043;-54
2021/05/13 04:09:08;;;;;;;5.10;3.20;;;;;;;14.93;44.93;98917.88;3519318;40;20392;-59
2021/05/13 04:11:36;;;;;;;6.78;3.58;;;;;;;15.02;44.81;98907.59;3518882;40;20097;-58
2021/05/13 04:14:03;;;;;;;7.95;3.22;;;;;;;15.12;44.77;98911.19;3519034;40;20452;-55
2021/05/13 04:16:32;;;;;;;11.20;3.35;;;;;;;15.17;44.61;98906.38;3519791;40;20047;-52
2021/05/13 04:18:59;;;;;;;5.93;2.90;;;;;;;15.26;44.48;98910.94;3519729;40;20039;-54
2021/05/13 04:21:26;;;;;;;6.57;3.40;;;;;;;15.36;44.42;98903.97;3518604;40;20039;-53
2021/05/13 04:23:53;;;;;;;3.50;2.53;;;;;;;15.40;44.04;98902.75;3519747;40;20068;-54
2021/05/13 04:26:20;;;;;;;4.90;2.70;;;;;;;15.44;43.94;98896.28;3518754;40;20036;-53
2021/05/13 04:28:47;;;;;;;6.45;3.00;;;;;;;15.52;43.95;98885.94;3519144;40;20032;-58
2021/05/13 04:31:14;;;;;;;6.57;3.38;;;;;;;15.69;43.54;98897.00;3519641;40;20046;-54
2021/05/13 04:33:41;;;;;;;4.07;3.05;;;;;;;15.74;43.59;98892.16;3519362;40;20425;-53
2021/05/13 04:36:08;;;;;;;6.32;3.30;;;;;;;15.98;43.03;98886.69;3519788;40;20068;-60
2021/05/13 04:38:35;;;;;;;9.02;3.67;;;;;;;16.67;42.28;98887.09;3519370;40;20043;-54
2021/05/13 04:41:02;;;;;;;6.03;3.25;;;;;;;17.60;40.54;98876.31;3519200;40;20034;-50
2021/05/13 04:43:33;;;;;;;3.55;2.97;;;;;;;19.06;37.82;98886.72;3519126;40;20127;-52
2021/05/13 04:45:59;;;;;;;6.32;3.80;;;;;;;20.36;35.21;98874.84;3509654;40;20044;-54
2021/05/13 04:48:28;;;;;;;3.85;3.17;;;;;;;20.45;35.43;98870.47;3519504;40;20036;-58
2021/05/13 04:50:56;;;;;;;6.35;3.80;;;;;;;20.68;34.76;98870.78;3519501;40;20055;-58
2021/05/13 04:53:23;;;;;;;6.03;3.20;;;;;;;21.37;33.76;98861.84;3519155;40;20294;-59
2021/05/13 04:55:49;;;;;;;5.47;2.83;;;;;;;21.17;34.02;98865.72;3518922;40;20416;-60
2021/05/13 04:58:17;;;;;;;8.80;3.30;;;;;;;20.58;34.63;98864.72;3519524;40;20032;-57
2021/05/13 05:00:45;;;;;;;5.80;4.57;;;;;;;20.95;33.82;98857.31;3519508;40;20119;-55
2021/05/13 05:03:12;;;;;;;8.27;3.78;;;;;;;21.57;32.92;98852.59;3518970;40;20040;-57
2021/05/13 05:05:39;;;;;;;6.80;3.35;;;;;;;21.36;33.29;98849.53;3519397;40;20036;-50
2021/05/13 05:08:05;;;;;;;3.80;2.97;;;;;;;21.29;33.07;98853.84;3519059;40;20044;-51
2021/05/13 05:10:32;;;;;;;9.30;4.00;;;;;;;21.12;33.52;98858.22;3519365;40;20035;-52
2021/05/13 05:12:59;;;;;;;4.78;3.40;;;;;;;21.22;33.49;98844.75;3518939;40;20032;-54
2021/05/13 05:15:26;;;;;;;4.82;3.20;;;;;;;21.71;32.11;98839.63;3518638;40;20031;-51
2021/05/13 05:17:53;;;;;;;6.28;3.30;;;;;;;21.60;32.59;98836.25;3519670;40;20411;-55
2021/05/13 05:20:20;;;;;;;6.90;3.38;;;;;;;21.60;32.61;98841.59;3520326;40;20043;-59
2021/05/13 05:22:47;;;;;;;4.88;3.25;;;;;;;22.59;30.37;98831.81;3519220;40;20040;-53
2021/05/13 05:25:14;;;;;;;5.53;3.17;;;;;;;22.94;30.22;98826.09;3519220;40;20424;-56
2021/05/13 05:27:41;;;;;;;3.42;3.13;;;;;;;23.16;29.97;98842.41;3520585;40;20042;-56
2021/05/13 05:30:10;;;;;;;11.25;3.90;;;;;;;22.51;30.76;98836.19;3520063;40;20307;-55
2021/05/13 05:32:37;;;;;;;4.55;2.70;;;;;;;22.01;31.28;98833.66;3520072;40;20042;-56
2021/05/13 05:35:05;;;;;;;5.78;3.30;;;;;;;21.74;31.98;98831.28;3511195;40;20388;-55
2021/05/13 05:37:32;;;;;;;6.03;3.75;;;;;;;21.69;32.18;98833.63;3519874;40;20044;-59
2021/05/13 05:40:01;;;;;;;8.32;3.40;;;;;;;21.66;31.61;98831.28;3520554;40;20036;-51
2021/05/13 05:42:28;;;;;;;5.32;3.08;;;;;;;21.64;31.47;98819.94;3520875;40;20075;-56
2021/05/13 05:44:55;;;;;;;7.55;3.70;;;;;;;21.81;31.38;98826.97;3520134;40;20036;-56
2021/05/13 05:47:22;;;;;;;5.00;3.42;;;;;;;21.53;31.66;98821.91;3520186;40;20084;-54
2021/05/13 05:49:50;;;;;;;8.43;4.05;;;;;;;21.69;31.76;98829.13;3520484;40;20036;-58
2021/05/13 05:52:17;;;;;;;4.05;3.20;;;;;;;22.06;31.13;98830.50;3520063;40;20035;-66
2021/05/13 05:54:43;;;;;;;5.45;3.50;;;;;;;21.54;31.87;98820.09;3519886;40;20056;-60
2021/05/13 05:57:10;;;;;;;5.20;3.53;;;;;;;21.50;31.73;98819.59;3520553;40;20035;-61
2021/05/13 05:59:37;;;;;;;9.23;4.57;;;;;;;21.36;32.33;98822.88;3520547;40;20039;-62
2021/05/13 06:02:04;;;;;;;6.45;3.25;;;;;;;22.22;31.17;98825.19;3519994;40;20500;-60
2021/05/13 06:04:31;;;;;;;6.88;4.00;;;;;;;25.49;26.83;98814.81;3520239;40;20411;-60
2021/05/13 06:06:59;;;;;;;8.50;4.18;;;;;;;29.39;22.08;98798.34;3520204;40;20036;-61
2021/05/13 06:09:26;;;;;;;5.13;3.33;;;;;;;32.77;18.47;98795.38;3519898;40;20039;-61
2021/05/13 06:11:52;;;;;;;4.68;3.28;;;;;;;34.76;16.36;98799.94;3520442;40;20066;-61
2021/05/13 06:14:19;;;;;;;4.18;3.13;;;;;;;35.50;16.12;98789.50;3520476;40;20045;-61
2021/05/13 06:16:46;;;;;;;4.13;3.00;;;;;;;37.20;14.61;98786.75;3511201;40;20047;-60
2021/05/13 06:19:14;;;;;;;5.43;3.60;;;;;;;38.51;13.61;98775.50;3520265;40;20039;-60
2021/05/13 06:21:41;;;;;;;8.57;5.03;;;;;;;39.43;12.96;98773.31;3511096;40;20394;-60
2021/05/13 06:24:11;;;;;;;7.45;3.13;;;;;;;40.38;12.13;98771.03;3520296;40;20076;-60
2021/05/13 06:26:39;;;;;;;12.77;4.60;;;;;;;40.84;12.02;98772.53;3520143;40;20035;-60
2021/05/13 06:29:08;;;;;;;3.58;2.92;;;;;;;41.00;11.15;98768.44;3520185;40;20304;-60
2021/05/13 06:31:36;;;;;;;6.68;2.95;;;;;;;40.94;10.99;98764.13;3520145;40;20036;-60
2021/05/13 06:34:03;;;;;;;6.82;3.17;;;;;;;42.34;10.86;98763.50;3520202;40;20035;-61
2021/05/13 06:36:30;;;;;;;8.20;3.20;;;;;;;43.53;9.86;98758.97;3520076;40;20036;-60
2021/05/13 06:38:57;;;;;;;5.45;3.30;;;;;;;44.30;8.98;98767.03;3519963;40;20325;-60
2021/05/13 06:41:24;;;;;;;9.60;3.50;;;;;;;44.08;9.29;98762.34;3520336;40;20036;-60
2021/05/13 06:43:51;;;;;;;8.95;5.00;;;;;;;44.65;8.86;98768.88;3520132;40;20032;-60
2021/05/13 06:46:19;;;;;;;6.28;2.88;;;;;;;45.12;8.42;98760.09;3520009;40;20407;-60
2021/05/13 06:48:46;;;;;;;4.63;3.00;;;;;;;45.14;8.25;98766.94;3519824;40;20047;-60
2021/05/13 06:51:13;;;;;;;4.75;3.00;;;;;;;45.03;8.41;98753.75;3519985;40;20389;-60
2021/05/13 06:53:40;;;;;;;4.97;2.75;;;;;;;45.49;7.72;98762.31;3520231;40;20044;-60
2021/05/13 06:56:07;;;;;;;7.57;3.42;;;;;;;45.45;7.90;98761.34;3519561;40;20055;-60
2021/05/13 06:58:34;;;;;;;5.72;3.00;;;;;;;45.84;7.82;98763.16;3519983;40;20440;-60
2021/05/13 07:01:01;;;;;;;5.72;2.70;;;;;;;46.21;7.52;98765.53;3520238;40;20059;-60
2021/05/13 07:03:28;;;;;;;7.50;3.00;;;;;;;45.95;7.52;98765.56;3520233;40;20071;-60
2021/05/13 07:05:55;;;;;;;6.47;2.95;;;;;;;45.94;7.50;98755.63;3520198;40;20042;-60
2021/05/13 07:08:22;;;;;;;5.72;3.03;;;;;;;46.14;7.22;98754.97;3520070;40;20081;-60
2021/05/13 07:10:49;;;;;;;5.45;3.10;;;;;;;46.25;7.03;98761.00;3519697;40;20443;-59
2021/05/13 07:13:16;;;;;;;3.88;2.63;;;;;;;45.41;7.62;98751.25;3520159;40;20043;-59
2021/05/13 07:15:44;;;;;;;3.58;2.78;;;;;;;44.64;7.98;98756.19;3520213;40;20039;-60
2021/05/13 07:18:14;;;;;;;7.72;3.25;;;;;;;45.08;7.78;98750.81;3520179;40;20042;-60
2021/05/13 07:20:41;;;;;;;4.93;2.88;;;;;;;45.05;7.58;98755.06;3520165;40;20040;-62
2021/05/13 07:23:08;;;;;;;4.25;2.97;;;;;;;42.87;9.07;98756.44;3520053;40;20064;-60
2021/05/13 07:25:36;;;;;;;7.50;2.95;;;;;;;43.12;9.31;98746.06;3520262;40;20043;-59
2021/05/13 07:28:03;;;;;;;8.02;3.17;;;;;;;43.48;8.33;98743.31;3520080;40;20036;-60
2021/05/13 07:30:31;;;;;;;6.90;3.10;;;;;;;42.46;9.70;98745.34;3519601;40;20444;-59
2021/05/13 07:32:59;;;;;;;12.02;3.78;;;;;;;42.92;9.23;98743.72;3519995;40;20032;-61
2021/05/13 07:35:26;;;;;;;3.85;2.55;;;;;;;43.27;8.87;98742.94;3519653;40;20328;-59
2021/05/13 07:37:52;;;;;;;5.07;2.92;;;;;;;42.22;9.24;98733.69;3519639;40;20097;-60
2021/05/13 07:40:22;;;;;;;5.93;3.17;;;;;;;42.54;9.44;98728.16;3518646;40;20125;-59
2021/05/13 07:42:49;;;;;;;6.47;2.75;;;;;;;41.54;9.91;98735.03;3520017;40;20036;-60
2021/05/13 07:45:17;;;;;;;4.22;2.53;;;;;;;42.09;9.50;98729.00;3519914;40;20031;-60
2021/05/13 07:47:45;;;;;;;7.38;2.80;;;;;;;42.36;9.27;98725.47;3519856;40;20072;-61
2021/05/13 07:50:14;;;;;;;4.60;2.72;;;;;;;43.25;8.84;98728.63;3519618;40;20047;-60
2021/05/13 07:52:42;;;;;;;3.78;2.72;;;;;;;43.67;8.26;98724.66;3519741;40;20126;-59
2021/05/13 07:55:10;;;;;;;4.75;2.95;;;;;;;42.19;9.44;98731.56;3519529;40;20067;-59
2021/05/13 07:57:37;;;;;;;5.18;2.58;;;;;;;40.41;10.07;98734.78;3519906;40;20118;-61
2021/05/13 08:00:05;;;;;;;3.65;2.72;;;;;;;40.77;10.29;98731.59;3519446;40;20424;-60
2021/05/13 08:02:32;;;;;;;4.97;2.60;;;;;;;40.28;9.77;98738.16;3519404;40;20420;-60
2021/05/13 08:04:59;;;;;;;3.97;2.75;;;;;;;39.62;10.83;98723.03;3519509;40;20316;-60
2021/05/13 08:07:28;;;;;;;4.53;2.40;;;;;;;40.68;9.38;98720.47;3509928;40;20043;-56
2021/05/13 08:09:55;;;;;;;3.50;2.67;;;;;;;40.08;10.24;98727.38;3519952;40;20067;-60
2021/05/13 08:12:26;;;;;;;4.32;2.70;;;;;;;40.21;9.82;98721.22;3519497;40;20043;-58
2021/05/13 08:15:03;;;;;;;7.75;2.60;;;;;;;40.17;9.84;98712.72;3514120;40;20427;-59
2021/05/13 08:17:30;;;;;;;3.67;2.70;;;;;;;40.96;9.97;98695.97;3510950;40;20091;-56
2021/05/13 08:20:10;;;;;;;4.35;2.72;;;;;;;41.27;9.89;98702.72;3520306;40;20060;-59
2021/05/13 08:22:38;;;;;;;6.57;2.60;;;;;;;41.21;9.81;98700.28;3520064;40;20036;-54
2021/05/13 08:25:13;;;;;;;5.10;2.30;;;;;;;39.97;10.25;98707.41;3509833;40;20296;-60
2021/05/13 08:27:54;;;;;;;4.68;2.60;;;;;;;37.39;12.26;98694.22;3511045;40;20076;-60
2021/05/13 08:30:23;;;;;;;3.05;2.30;;;;;;;36.34;12.84;98702.47;3522907;40;20051;-60
2021/05/13 08:33:01;;;;;;;7.57;2.30;;;;;;;34.41;14.61;98699.59;3518450;40;20115;-55
2021/05/13 08:35:27;;;;;;;4.47;2.10;;;;;;;34.16;14.92;98703.56;3517424;40;20486;-57
2021/05/13 08:37:55;;;;;;;3.33;2.50;;;;;;;34.31;15.24;98700.22;3520243;40;20040;-57
2021/05/13 08:40:43;;;;;;;4.72;2.40;;;;;;;33.47;15.78;98693.94;3520094;40;20035;-56
2021/05/13 08:43:22;;;;;;;6.22;2.40;;;;;;;32.30;16.50;98692.34;3509704;40;20052;-56
2021/05/13 08:45:56;;;;;;;3.85;2.45;;;;;;;32.28;16.03;98702.63;3518766;40;20042;-59
2021/05/13 08:48:35;;;;;;;3.72;2.40;;;;;;;32.00;16.47;98697.00;3510278;40;20100;-59
2021/05/13 08:51:02;;;;;;;4.53;2.53;;;;;;;31.51;17.63;98710.69;3512074;40;20043;-56
2021/05/13 08:53:31;;;;;;;3.38;2.42;;;;;;;31.41;17.85;98706.88;3509679;40;20051;-55
2021/05/13 08:55:58;;;;;;;8.27;2.83;;;;;;;31.66;17.52;98691.31;3524158;40;20161;-53
2021/05/13 08:58:25;;;;;;;6.35;2.42;;;;;;;31.33;17.34;98694.50;3520768;40;20586;-54
2021/05/13 09:00:53;;;;;;;7.72;3.15;;;;;;;30.74;18.55;98700.66;3521146;40;20038;-56
2021/05/13 09:03:34;;;;;;;5.95;2.47;;;;;;;30.41;18.48;98696.41;3510747;40;20043;-52
2021/05/13 09:06:00;;;;;;;5.15;2.40;;;;;;;30.20;18.70;98694.97;3519133;40;20080;-52
2021/05/13 09:08:28;;;;;;;4.10;2.38;;;;;;;30.01;18.75;98702.19;3520912;40;20078;-50
2021/05/13 09:11:09;;;;;;;6.00;2.33;;;;;;;29.44;19.31;98697.78;3520009;40;20063;-55
2021/05/13 09:13:36;;;;;;;4.00;2.70;;;;;;;29.15;20.10;98693.78;3520902;40;20080;-51
2021/05/13 09:16:31;;;;;;;5.40;2.28;;;;;;;28.65;19.81;98690.88;3520327;40;20125;-56
2021/05/13 09:18:58;;;;;;;5.88;2.40;;;;;;;28.61;20.21;98688.84;3519960;40;20028;-59
2021/05/13 09:21:25;;;;;;;5.13;2.22;;;;;;;28.73;19.94;98677.16;3520037;40;20156;-55
2021/05/13 09:23:53;;;;;;;4.60;2.17;;;;;;;28.68;20.04;98674.28;3520549;40;20079;-52
2021/05/13 09:26:31;;;;;;;5.15;2.60;;;;;;;28.19;20.41;98683.72;3511238;40;20042;-53
2021/05/13 09:29:10;;;;;;;3.90;2.72;;;;;;;28.27;20.17;98676.47;3511593;40;20043;-56
2021/05/13 09:31:40;;;;;;;6.30;2.58;;;;;;;28.06;20.09;98670.25;3520846;40;20067;-54
2021/05/13 09:34:09;;;;;;;5.57;2.30;;;;;;;27.88;20.50;98678.13;3519005;40;20056;-52
2021/05/13 09:36:37;;;;;;;3.53;2.65;;;;;;;27.73;20.78;98674.84;3522865;40;20131;-57
2021/05/13 09:39:24;;;;;;;5.80;2.33;;;;;;;27.53;21.38;98675.63;3518899;40;20046;-55
2021/05/13 09:42:01;;;;;;;6.38;2.10;;;;;;;27.46;21.99;98672.09;3519566;40;20121;-50
2021/05/13 09:44:36;;;;;;;5.35;2.67;;;;;;;27.21;22.11;98660.25;3522030;40;20039;-55
2021/05/13 09:47:26;;;;;;;6.20;2.85;;;;;;;27.47;22.03;98657.59;3510851;40;20119;-53
2021/05/13 09:50:02;;;;;;;2.17;1.88;;;;;;;27.60;21.49;98657.59;3520099;40;20047;-54
2021/05/13 09:52:51;;;;;;;4.70;2.10;;;;;;;27.34;21.53;98649.53;3516552;40;20125;-59
2021/05/13 09:55:21;;;;;;;5.90;2.40;;;;;;;27.19;20.61;98649.69;3518810;40;20063;-58
2021/05/13 09:57:55;;;;;;;3.93;2.50;;;;;;;26.95;20.67;98645.69;3512450;40;20047;-58
2021/05/13 10:00:42;;;;;;;3.65;2.15;;;;;;;27.08;20.88;98636.84;3521561;40;20043;-54
2021/05/13 10:03:13;;;;;;;2.83;1.90;;;;;;;26.99;21.58;98630.81;3520581;40;20039;-52
2021/05/13 10:05:42;;;;;;;3.00;2.13;;;;;;;26.91;21.81;98630.97;3519451;40;20035;-56
2021/05/13 10:08:11;;;;;;;4.93;2.35;;;;;;;27.00;21.33;98627.09;3520242;40;20095;-57
2021/05/13 10:10:39;;;;;;;2.40;1.80;;;;;;;26.90;21.28;98626.63;3522375;40;20075;-60
2021/05/13 10:13:08;;;;;;;4.75;2.10;;;;;;;26.65;21.97;98622.81;3520295;40;20042;-62
2021/05/13 10:15:38;;;;;;;4.65;1.95;;;;;;;26.25;22.21;98621.78;3518046;40;20044;-60
2021/05/13 10:18:19;;;;;;;14.68;3.53;;;;;;;25.96;21.45;98629.03;3511746;40;20044;-59
2021/05/13 10:20:52;;;;;;;6.90;2.20;;;;;;;25.85;21.51;98620.72;3521047;40;20046;-50
2021/05/13 10:23:22;;;;;;;3.47;2.05;;;;;;;25.99;21.59;98622.44;3515248;40;20076;-62
2021/05/13 10:25:49;;;;;;;3.17;2.10;;;;;;;26.10;21.43;98614.69;3520791;40;20427;-57
2021/05/13 10:28:17;;;;;;;3.00;1.95;;;;;;;26.18;22.10;98620.91;3520193;40;20139;-60
2021/05/13 10:30:59;;;;;;;3.88;1.88;;;;;;;26.17;22.45;98612.03;3521089;40;20051;-52
2021/05/13 10:33:44;;;;;;;5.93;1.98;;;;;;;26.00;22.24;98613.38;3522133;40;20039;-59
2021/05/13 10:36:26;;;;;;;3.88;2.00;;;;;;;25.98;22.71;98616.25;3519795;40;20043;-52
2021/05/13 10:38:56;;;;;;;5.28;2.60;;;;;;;25.67;23.96;98610.44;3519935;40;20048;-60
2021/05/13 10:41:43;;;;;;;6.85;2.17;;;;;;;25.63;23.58;98611.84;3518226;40;20078;-58
2021/05/13 10:44:40;;;;;;;2.38;1.75;;;;;;;25.59;23.17;98611.38;3520907;40;20043;-65
2021/05/13 10:47:07;;;;;;;4.32;2.00;;;;;;;25.59;22.82;98610.56;3510815;40;20119;-59
2021/05/13 10:49:49;;;;;;;3.28;1.95;;;;;;;25.51;23.38;98600.81;3510536;40;20040;-60
2021/05/13 10:52:41;;;;;;;3.33;2.35;;;;;;;25.44;23.49;98605.31;3519468;40;20127;-61
2021/05/13 10:55:10;;;;;;;7.25;2.63;;;;;;;25.56;23.88;98601.03;3509111;40;20064;-58
2021/05/13 10:57:53;;;;;;;6.32;2.40;;;;;;;25.54;23.64;98597.72;3509566;40;20439;-60
2021/05/13 11:00:33;;;;;;;4.10;2.25;;;;;;;25.34;23.46;98594.88;3511305;40;20040;-59
2021/05/13 11:03:18;;;;;;;3.50;1.83;;;;;;;25.40;22.93;98598.63;3512009;40;20044;-60
2021/05/13 11:05:46;;;;;;;2.80;1.80;;;;;;;25.13;22.95;98595.72;3507064;40;20036;-61
2021/05/13 11:08:49;;;;;;;4.03;1.90;;;;;;;25.13;23.81;98600.25;3512275;40;20036;-59
2021/05/13 11:11:16;;;;;;;3.50;2.10;;;;;;;24.99;23.51;98591.28;3512089;40;20059;-61
2021/05/13 11:13:51;;;;;;;4.65;2.17;;;;;;;25.11;23.05;98586.22;3510897;40;20055;-61
2021/05/13 11:16:52;;;;;;;5.45;2.00;;;;;;;25.17;22.83;98582.75;3510368;40;20058;-54
2021/05/13 11:19:25;;;;;;;3.20;1.83;;;;;;;25.36;22.63;98583.97;3505456;40;20043;-53
2021/05/13 11:22:02;;;;;;;5.13;2.80;;;;;;;25.41;22.53;98589.59;3509539;40;20072;-56
2021/05/13 11:24:36;;;;;;;2.78;1.90;;;;;;;25.25;22.09;98581.81;3511677;40;20051;-53
2021/05/13 11:27:08;;;;;;;8.35;2.03;;;;;;;25.06;22.88;98586.81;3510090;40;20051;-61
2021/05/13 11:29:45;;;;;;;2.88;2.10;;;;;;;24.83;23.18;98580.75;3508939;40;20052;-53
2021/05/13 11:32:15;;;;;;;1.88;1.77;;;;;;;24.76;22.87;98582.53;3510744;40;20451;-65
2021/05/13 11:34:43;;;;;;;2.92;2.17;;;;;;;24.76;22.24;98577.16;3509463;40;20040;-56
2021/05/13 11:37:11;;;;;;;2.25;1.63;;;;;;;24.82;22.68;98582.63;3506824;41;20055;-57
2021/05/13 11:39:47;;;;;;;5.18;2.10;;;;;;;25.01;22.72;98583.88;3509871;40;20040;-58
2021/05/13 11:42:21;;;;;;;7.70;2.08;;;;;;;24.94;23.00;98569.53;3510394;40;20398;-61
2021/05/13 11:44:59;;;;;;;2.88;2.30;;;;;;;24.74;23.10;98573.84;3509015;40;20036;-56
2021/05/13 11:47:31;;;;;;;2.92;1.95;;;;;;;24.54;23.32;98579.81;3505705;40;20047;-54